createdAt,value
2022-08-17T00:02:30.996Z,21.1
2022-08-17T00:08:20.587Z,21.1
2022-08-17T00:13:55.996Z,21.1
2022-08-17T00:19:33.956Z,21.1
2022-08-17T00:25:09.055Z,21
2022-08-17T00:30:48.418Z,21
2022-08-17T00:36:29.466Z,21
2022-08-17T00:42:30.419Z,21
2022-08-17T00:48:04.186Z,20.9
2022-08-17T00:54:06.694Z,20.9
2022-08-17T00:59:41.553Z,20.9
2022-08-17T01:05:16.252Z,20.9
2022-08-17T01:10:57.061Z,20.9
2022-08-17T01:16:37.374Z,20.9
2022-08-17T01:22:12.145Z,20.9
2022-08-17T01:27:47.022Z,20.8
2022-08-17T01:33:21.801Z,20.8
2022-08-17T01:38:57.806Z,20.8
2022-08-17T01:44:55.031Z,20.8
2022-08-17T01:50:28.000Z,20.8
2022-08-17T01:56:02.694Z,20.8
2022-08-17T02:01:37.627Z,20.7
2022-08-17T02:07:13.239Z,20.7
2022-08-17T02:12:52.569Z,20.7
2022-08-17T02:18:29.232Z,20.7
2022-08-17T02:24:04.343Z,20.7
2022-08-17T02:29:40.205Z,20.7
2022-08-17T02:35:14.921Z,20.6
2022-08-17T02:40:56.966Z,20.6
2022-08-17T02:46:31.719Z,20.6
2022-08-17T02:52:07.340Z,20.6
2022-08-17T02:57:42.180Z,20.6
2022-08-17T03:03:18.150Z,20.6
2022-08-17T03:08:53.059Z,20.6
2022-08-17T03:14:28.324Z,20.5
2022-08-17T03:20:03.173Z,20.5
2022-08-17T03:25:38.237Z,20.5
2022-08-17T03:31:13.611Z,20.5
2022-08-17T03:36:48.330Z,20.4
2022-08-17T03:42:44.904Z,20.4
2022-08-17T03:48:18.435Z,20.3
2022-08-17T03:53:53.133Z,20.2
2022-08-17T03:59:27.962Z,20.1
2022-08-17T04:05:03.032Z,20
2022-08-17T04:10:38.432Z,19.9
2022-08-17T04:16:20.585Z,19.9
2022-08-17T04:21:55.239Z,19.8
2022-08-17T04:27:30.856Z,19.8
2022-08-17T04:33:07.175Z,19.7
2022-08-17T04:38:42.151Z,19.6
2022-08-17T04:44:38.645Z,19.6
2022-08-17T04:50:12.328Z,19.7
2022-08-17T04:55:47.133Z,19.7
2022-08-17T05:01:23.494Z,19.6
2022-08-17T05:07:00.221Z,19.5
2022-08-17T05:12:36.551Z,19.5
2022-08-17T05:18:11.540Z,19.4
2022-08-17T05:23:47.174Z,19.4
2022-08-17T05:29:33.732Z,19.3
2022-08-17T05:35:10.825Z,19.3
2022-08-17T05:40:45.764Z,19.3
2022-08-17T05:46:20.615Z,19.3
2022-08-17T05:51:56.354Z,19.3
2022-08-17T05:57:31.518Z,19.4
2022-08-17T06:03:07.951Z,19.4
2022-08-17T06:08:43.193Z,19.4
2022-08-17T06:14:17.964Z,19.4
2022-08-17T06:19:53.734Z,19.4
2022-08-17T06:25:28.768Z,19.4
2022-08-17T06:31:03.722Z,19.4
2022-08-17T06:36:38.556Z,19.5
2022-08-17T06:42:54.447Z,19.6
2022-08-17T06:48:42.452Z,19.7
2022-08-17T06:54:17.404Z,19.6
2022-08-17T06:59:54.578Z,19.8
2022-08-17T07:05:31.591Z,19.7
2022-08-17T07:11:06.826Z,19.6
2022-08-17T07:16:41.657Z,19.3
2022-08-17T07:22:16.854Z,19.4
2022-08-17T07:27:51.870Z,19.6
2022-08-17T07:33:28.044Z,19.8
2022-08-17T07:39:03.247Z,20.1
2022-08-17T07:44:59.859Z,20.2
2022-08-17T07:50:32.716Z,20.3
2022-08-17T07:56:07.511Z,20.3
2022-08-17T08:01:42.490Z,20.4
2022-08-17T08:07:20.826Z,21.1
2022-08-17T08:12:58.787Z,21
2022-08-17T08:18:39.690Z,21.9
2022-08-17T08:24:33.078Z,22.4
2022-08-17T08:30:09.307Z,21.6
2022-08-17T08:35:44.479Z,21.1
2022-08-17T08:41:19.904Z,21
2022-08-17T08:46:56.618Z,20.9
2022-08-17T08:52:31.280Z,20.9
2022-08-17T08:58:07.099Z,21
2022-08-17T09:04:24.471Z,21
2022-08-17T09:10:00.920Z,21
2022-08-17T09:15:35.725Z,21.1
2022-08-17T09:21:10.785Z,21.3
2022-08-17T09:26:46.928Z,21.4
2022-08-17T09:32:21.642Z,21.3
2022-08-17T09:37:57.724Z,21.3
2022-08-17T09:43:54.744Z,21.3
2022-08-17T09:49:28.358Z,21.3
2022-08-17T09:55:03.110Z,21.4
2022-08-17T10:00:37.909Z,21.4
2022-08-17T10:06:12.915Z,21.4
2022-08-17T10:11:48.225Z,21.4
2022-08-17T10:17:25.516Z,21.4
2022-08-17T10:23:00.470Z,21.6
2022-08-17T10:28:35.417Z,21.7
2022-08-17T10:34:10.264Z,21.7
2022-08-17T10:39:50.657Z,21.7
2022-08-17T10:45:29.173Z,21.9
2022-08-17T10:51:03.929Z,22.1
2022-08-17T10:56:38.784Z,22.3
2022-08-17T11:02:14.667Z,22.3
2022-08-17T11:07:49.550Z,22.2
2022-08-17T11:13:24.681Z,22.1
2022-08-17T11:19:00.755Z,22.1
2022-08-17T11:24:35.629Z,22.2
2022-08-17T11:30:10.544Z,22.2
2022-08-17T11:35:51.973Z,22.2
2022-08-17T11:41:26.886Z,22.3
2022-08-17T11:47:02.803Z,22.3
2022-08-17T11:52:37.530Z,22.3
2022-08-17T11:58:13.281Z,22.3
2022-08-17T12:03:53.923Z,22.2
2022-08-17T12:09:31.122Z,22.2
2022-08-17T12:15:11.703Z,22.3
2022-08-17T12:20:52.055Z,22.3
2022-08-17T12:26:31.878Z,22.3
2022-08-17T12:32:06.754Z,22.4
2022-08-17T12:37:43.885Z,22.5
2022-08-17T12:43:40.670Z,22.7
2022-08-17T12:49:13.333Z,22.9
2022-08-17T12:54:48.108Z,22.8
2022-08-17T13:00:23.323Z,22.7
2022-08-17T13:05:58.155Z,22.6
2022-08-17T13:11:33.327Z,22.5
2022-08-17T13:17:13.268Z,22.4
2022-08-17T13:22:48.371Z,22.4
2022-08-17T13:28:29.841Z,22.4
2022-08-17T13:34:19.476Z,22.4
2022-08-17T13:40:02.513Z,22.4
2022-08-17T13:45:40.013Z,22.4
2022-08-17T13:51:25.904Z,22.4
2022-08-17T13:57:00.725Z,22.4
2022-08-17T14:02:35.718Z,22.4
2022-08-17T14:08:10.387Z,22.3
2022-08-17T14:13:45.256Z,22.3
2022-08-17T14:19:21.292Z,22.3
2022-08-17T14:24:56.281Z,22.2
2022-08-17T14:30:31.077Z,22.2
2022-08-17T14:36:05.912Z,22.2
2022-08-17T14:42:02.602Z,22.2
2022-08-17T14:47:35.819Z,22.2
2022-08-17T14:53:11.855Z,22.2
2022-08-17T14:58:47.843Z,22.2
2022-08-17T15:04:22.701Z,22.2
2022-08-17T15:09:57.468Z,22.2
2022-08-17T15:15:38.232Z,22.2
2022-08-17T15:21:13.043Z,22.2
2022-08-17T15:26:47.609Z,22.2
2022-08-17T15:32:22.455Z,22.3
2022-08-17T15:37:57.445Z,22.3
2022-08-17T15:43:54.424Z,22.4
2022-08-17T15:49:27.078Z,22.4
2022-08-17T15:55:06.411Z,22.4
2022-08-17T16:00:53.283Z,22.2
2022-08-17T16:10:07.788Z,22
2022-08-17T16:16:09.293Z,21.3
2022-08-17T16:21:44.057Z,21.5
2022-08-17T16:27:19.521Z,21.8
2022-08-17T16:32:54.364Z,21.9
2022-08-17T16:38:30.116Z,21.9
2022-08-17T16:44:27.017Z,22.2
2022-08-17T16:49:59.928Z,22.2
2022-08-17T16:55:36.221Z,22.1
2022-08-17T17:01:11.632Z,22.8
2022-08-17T17:06:48.368Z,23
2022-08-17T17:12:34.876Z,22.7
2022-08-17T17:18:40.790Z,22.4
2022-08-17T17:24:15.571Z,22.3
2022-08-17T17:29:51.628Z,22.1
2022-08-17T17:35:27.079Z,22
2022-08-17T17:41:03.200Z,22
2022-08-17T17:46:38.943Z,22.1
2022-08-17T17:52:19.040Z,22.1
2022-08-17T17:57:54.789Z,21.9
2022-08-17T18:03:29.619Z,21.9
2022-08-17T18:09:06.231Z,21.8
2022-08-17T18:14:49.773Z,21.7
2022-08-17T18:20:32.348Z,21.6
2022-08-17T18:26:32.087Z,21.6
2022-08-17T18:32:08.774Z,21.6
2022-08-17T18:37:43.520Z,21.5
2022-08-17T18:43:44.602Z,21.4
2022-08-17T18:49:27.012Z,21.3
2022-08-17T18:55:01.940Z,21.2
2022-08-17T19:00:36.984Z,21.2
2022-08-17T19:06:11.663Z,21.1
2022-08-17T19:11:46.415Z,21
2022-08-17T19:17:21.279Z,20.9
2022-08-17T19:22:56.469Z,20.8
2022-08-17T19:28:31.299Z,20.7
2022-08-17T19:34:07.287Z,20.6
2022-08-17T19:39:42.069Z,20.6
2022-08-17T19:45:18.965Z,20.5
2022-08-17T19:50:54.106Z,20.5
2022-08-17T19:56:29.480Z,20.4
2022-08-17T20:02:05.306Z,20.4
2022-08-17T20:07:41.892Z,20.3
2022-08-17T20:13:16.777Z,20.3
2022-08-17T20:19:12.328Z,20.2
2022-08-17T20:24:48.301Z,20.1
2022-08-17T20:30:23.050Z,20
2022-08-17T20:35:58.852Z,19.9
2022-08-17T20:41:33.562Z,19.9
2022-08-17T20:47:08.444Z,19.8
2022-08-17T20:52:43.584Z,19.8
2022-08-17T20:58:18.397Z,19.8
2022-08-17T21:03:53.134Z,19.8
2022-08-17T21:09:28.196Z,19.7
2022-08-17T21:15:03.016Z,19.7
2022-08-17T21:20:37.648Z,19.7
2022-08-17T21:26:13.247Z,19.7
2022-08-17T21:31:47.918Z,19.7
2022-08-17T21:37:24.021Z,19.7
2022-08-17T21:43:20.788Z,19.7
2022-08-17T21:48:54.282Z,19.6
2022-08-17T21:54:29.434Z,19.6
2022-08-17T22:00:05.547Z,19.5
2022-08-17T22:05:41.435Z,19.4
2022-08-17T22:11:16.542Z,19.4
2022-08-17T22:16:51.329Z,19.3
2022-08-17T22:22:27.485Z,19.3
2022-08-17T22:28:02.649Z,19.2
2022-08-17T22:33:37.549Z,19.1
2022-08-17T22:39:13.275Z,19.1
2022-08-17T22:45:10.140Z,19.1
2022-08-17T22:50:42.804Z,19
2022-08-17T22:56:17.830Z,18.9
2022-08-17T23:01:55.979Z,18.9
2022-08-17T23:07:30.676Z,18.9
2022-08-17T23:13:05.639Z,18.9
2022-08-17T23:18:40.488Z,18.8
2022-08-17T23:24:15.346Z,18.8
2022-08-17T23:29:51.162Z,18.8
2022-08-17T23:35:39.497Z,18.9
2022-08-17T23:41:16.032Z,18.9
2022-08-17T23:46:51.854Z,18.9
2022-08-17T23:52:26.786Z,18.9
2022-08-17T23:58:01.490Z,18.9
